Time;durP1;ratioP1;P1;durP2;ratioP2;P2;SDS_P1;SDS_P2;PMS_P1;PMS_P2;Temp;Humidity;BMP_temperature;BMP_pressure;BME280_temperature;BME280_humidity;BME280_pressure;Samples;Min_cycle;Max_cycle;Signal;HPM_P1;HPM_P2
2021/01/25 00:00:48;;;;;;;9.60;5.78;;;-0.50;99.90;;;;;;5073950;28;20215;-46
2021/01/25 00:03:16;;;;;;;12.68;8.40;;;-0.50;99.90;;;;;;5074004;28;20270;-54
2021/01/25 00:05:44;;;;;;;8.10;5.50;;;-0.50;99.90;;;;;;5073622;28;20731;-57
2021/01/25 00:08:11;;;;;;;7.90;6.53;;;-0.50;99.90;;;;;;5073995;28;20577;-54
2021/01/25 00:10:38;;;;;;;9.35;6.75;;;-0.50;99.90;;;;;;5073797;28;20298;-52
2021/01/25 00:13:05;;;;;;;9.25;6.63;;;-0.50;99.90;;;;;;5073473;28;20215;-52
2021/01/25 00:15:32;;;;;;;8.15;6.90;;;-0.50;99.90;;;;;;5073505;28;20207;-56
2021/01/25 00:17:59;;;;;;;7.32;6.53;;;-0.50;99.90;;;;;;5073670;28;20298;-52
2021/01/25 00:20:27;;;;;;;7.25;6.40;;;-0.50;99.90;;;;;;5073229;28;20665;-55
2021/01/25 00:22:54;;;;;;;9.70;6.68;;;-0.50;99.90;;;;;;5073372;28;20211;-51
2021/01/25 00:25:21;;;;;;;12.10;10.77;;;-0.50;99.90;;;;;;5073124;28;20259;-54
2021/01/25 00:27:48;;;;;;;9.32;8.38;;;-0.50;99.90;;;;;;5073234;28;20264;-55
2021/01/25 00:30:17;;;;;;;11.20;9.97;;;-0.50;99.90;;;;;;5073020;28;20290;-55
2021/01/25 00:32:44;;;;;;;10.52;9.52;;;-0.40;99.90;;;;;;5073226;28;20244;-51
2021/01/25 00:35:13;;;;;;;8.43;7.05;;;-0.30;99.90;;;;;;5073164;28;20214;-52
2021/01/25 00:37:41;;;;;;;12.77;10.88;;;-0.30;99.90;;;;;;5073164;28;20288;-55
2021/01/25 00:40:09;;;;;;;9.73;7.65;;;-0.30;99.90;;;;;;5072191;28;20218;-53
2021/01/25 00:42:36;;;;;;;8.10;7.30;;;-0.30;99.90;;;;;;5072846;28;20234;-52
2021/01/25 00:45:04;;;;;;;7.32;6.60;;;-0.20;99.90;;;;;;5072783;28;20662;-57
2021/01/25 00:47:31;;;;;;;8.07;7.28;;;-0.20;99.90;;;;;;5072790;28;20729;-52
2021/01/25 00:49:59;;;;;;;7.50;6.67;;;-0.20;99.90;;;;;;5072900;28;20277;-55
2021/01/25 00:52:26;;;;;;;11.27;9.05;;;-0.20;99.90;;;;;;5072957;28;20215;-54
2021/01/25 00:54:53;;;;;;;9.40;7.50;;;-0.20;99.90;;;;;;5072815;28;20287;-57
2021/01/25 00:57:21;;;;;;;6.57;5.70;;;-0.30;99.90;;;;;;5072746;28;20302;-52
2021/01/25 00:59:47;;;;;;;9.13;7.43;;;-0.30;99.90;;;;;;5073017;28;20340;-53
2021/01/25 01:02:14;;;;;;;9.30;6.63;;;-0.40;99.90;;;;;;5072753;28;20246;-55
2021/01/25 01:04:42;;;;;;;8.77;6.60;;;-0.50;99.90;;;;;;5072570;28;20219;-53
2021/01/25 01:07:08;;;;;;;8.43;6.72;;;-0.60;99.90;;;;;;5072706;28;20671;-42
2021/01/25 01:09:36;;;;;;;6.97;6.03;;;-0.60;99.90;;;;;;5072337;28;20208;-51
2021/01/25 01:12:05;;;;;;;7.85;6.70;;;-0.70;99.90;;;;;;5072604;28;20349;-53
2021/01/25 01:14:32;;;;;;;8.67;7.40;;;-0.80;99.90;;;;;;5072337;28;20610;-50
2021/01/25 01:16:58;;;;;;;6.93;5.97;;;-0.80;99.90;;;;;;5072389;28;20260;-51
2021/01/25 01:19:26;;;;;;;8.05;6.30;;;-0.80;99.90;;;;;;5072398;28;20254;-54
2021/01/25 01:21:53;;;;;;;9.93;6.27;;;-0.80;99.90;;;;;;5072403;28;20314;-50
2021/01/25 01:24:20;;;;;;;10.82;7.10;;;-0.70;99.90;;;;;;5072021;28;20211;-48
2021/01/25 01:26:47;;;;;;;8.02;6.97;;;-0.70;99.90;;;;;;5072468;28;20302;-49
2021/01/25 01:29:15;;;;;;;8.48;6.57;;;-0.70;99.90;;;;;;5071903;28;20298;-49
2021/01/25 01:31:42;;;;;;;8.60;6.85;;;-0.70;99.90;;;;;;5072210;28;20302;-52
2021/01/25 01:34:09;;;;;;;8.35;6.93;;;-0.70;99.90;;;;;;5072045;28;20661;-52
2021/01/25 01:36:36;;;;;;;7.15;6.43;;;-0.60;99.90;;;;;;5072150;28;20210;-51
2021/01/25 01:39:04;;;;;;;7.63;6.82;;;-0.60;99.90;;;;;;5071953;28;20260;-51
2021/01/25 01:41:34;;;;;;;9.70;7.65;;;-0.60;99.90;;;;;;5072246;28;20203;-49
2021/01/25 01:44:02;;;;;;;7.75;6.10;;;-0.60;99.90;;;;;;5072046;28;20241;-50
2021/01/25 01:46:31;;;;;;;7.50;6.72;;;-0.60;99.90;;;;;;5071954;28;20637;-51
2021/01/25 01:48:58;;;;;;;7.63;6.88;;;-0.50;99.90;;;;;;5072087;28;20643;-51
2021/01/25 01:51:26;;;;;;;11.98;6.05;;;-0.50;99.90;;;;;;5071779;28;20293;-52
2021/01/25 01:53:53;;;;;;;10.40;6.85;;;-0.60;99.90;;;;;;5072234;28;20591;-48
2021/01/25 01:56:20;;;;;;;8.77;7.10;;;-0.50;99.90;;;;;;5072101;28;20235;-52
2021/01/25 01:58:47;;;;;;;8.50;7.50;;;-0.60;99.90;;;;;;5071865;28;20239;-52
2021/01/25 02:01:14;;;;;;;10.30;7.40;;;-0.50;99.90;;;;;;5071956;28;20211;-51
2021/01/25 02:03:42;;;;;;;7.88;6.50;;;-0.40;99.90;;;;;;5072059;28;20614;-51
2021/01/25 02:06:10;;;;;;;8.45;6.15;;;-0.30;99.90;;;;;;5071672;28;20693;-51
2021/01/25 02:08:38;;;;;;;7.07;6.10;;;-0.20;99.90;;;;;;5072108;28;20203;-51
2021/01/25 02:11:08;;;;;;;5.80;4.78;;;-0.20;99.90;;;;;;5071977;28;20286;-49
2021/01/25 02:13:35;;;;;;;5.72;5.03;;;-0.20;99.90;;;;;;5071647;28;20593;-49
2021/01/25 02:16:04;;;;;;;7.50;5.57;;;-0.20;99.90;;;;;;5071838;28;20254;-50
2021/01/25 02:18:34;;;;;;;5.72;5.15;;;-0.30;99.90;;;;;;5071700;28;20573;-52
2021/01/25 02:21:06;;;;;;;8.20;5.65;;;-0.30;99.90;;;;;;5071965;28;20207;-52
2021/01/25 02:24:10;;;;;;;7.70;6.20;;;-0.40;99.90;;;;;;5071752;28;20364;-53
2021/01/25 02:26:54;;;;;;;7.20;5.60;;;-0.40;99.90;;;;;;5049243;28;20322;-49
2021/01/25 02:29:23;;;;;;;6.53;5.13;;;-0.50;99.90;;;;;;5070220;28;20308;-52
2021/01/25 02:31:51;;;;;;;5.75;5.15;;;-0.50;99.90;;;;;;5071803;28;20208;-53
2021/01/25 02:34:19;;;;;;;6.15;5.20;;;-0.60;99.90;;;;;;5071641;28;20215;-51
2021/01/25 02:36:46;;;;;;;5.22;4.75;;;-0.60;99.90;;;;;;5071807;28;20231;-54
2021/01/25 02:39:15;;;;;;;5.55;5.03;;;-0.70;99.90;;;;;;5071560;28;20287;-51
2021/01/25 02:41:43;;;;;;;7.95;4.97;;;-0.80;99.90;;;;;;5071433;28;20207;-54
2021/01/25 02:44:13;;;;;;;5.10;4.60;;;-0.80;99.90;;;;;;5071944;28;20269;-51
2021/01/25 02:46:41;;;;;;;7.75;5.20;;;-0.80;99.90;;;;;;5071535;28;20594;-51
2021/01/25 02:49:08;;;;;;;4.90;4.47;;;-0.90;99.90;;;;;;5071327;28;20216;-51
2021/01/25 02:51:35;;;;;;;6.18;4.75;;;-0.80;99.90;;;;;;5071388;28;20207;-50
2021/01/25 02:54:02;;;;;;;5.88;5.18;;;-0.80;99.90;;;;;;5071281;28;20301;-52
2021/01/25 02:56:30;;;;;;;5.28;4.75;;;-0.80;99.90;;;;;;5071433;28;20625;-52
2021/01/25 02:58:57;;;;;;;6.65;4.75;;;-0.80;99.90;;;;;;5071541;28;20612;-54
2021/01/25 03:01:26;;;;;;;10.38;5.00;;;-0.70;99.90;;;;;;5071190;28;20261;-51
2021/01/25 03:03:55;;;;;;;5.85;4.55;;;-0.70;99.90;;;;;;5074576;28;20298;-56
2021/01/25 03:06:22;;;;;;;5.22;4.72;;;-0.60;99.90;;;;;;5074803;28;20273;-52
2021/01/25 03:08:49;;;;;;;5.65;5.07;;;-0.70;99.90;;;;;;5075027;28;20233;-55
2021/01/25 03:11:19;;;;;;;5.55;5.05;;;-0.60;99.90;;;;;;5074829;28;20658;-54
2021/01/25 03:13:46;;;;;;;8.10;5.10;;;-0.70;99.90;;;;;;5074649;28;20717;-55
2021/01/25 03:16:16;;;;;;;6.65;5.30;;;-0.70;99.90;;;;;;5074773;28;20232;-50
2021/01/25 03:18:43;;;;;;;6.82;5.22;;;-0.60;99.90;;;;;;5074982;28;20250;-51
2021/01/25 03:21:11;;;;;;;5.82;5.05;;;-0.50;99.90;;;;;;5074649;28;20210;-49
2021/01/25 03:23:38;;;;;;;6.80;5.43;;;-0.40;99.90;;;;;;5074542;28;20246;-49
2021/01/25 03:26:06;;;;;;;6.82;5.93;;;-0.40;99.90;;;;;;5074458;28;20223;-52
2021/01/25 03:28:33;;;;;;;6.10;5.50;;;-0.30;99.90;;;;;;5074538;28;20302;-55
2021/01/25 03:31:00;;;;;;;7.22;5.72;;;-0.30;99.90;;;;;;5074527;28;20207;-55
2021/01/25 03:33:27;;;;;;;6.38;5.70;;;-0.40;99.90;;;;;;5074507;28;20279;-51
2021/01/25 03:35:54;;;;;;;6.40;5.78;;;-0.30;99.90;;;;;;5074424;28;20218;-53
2021/01/25 03:38:22;;;;;;;6.97;5.78;;;-0.40;99.90;;;;;;5074332;28;20250;-51
2021/01/25 03:40:49;;;;;;;7.00;5.50;;;-0.40;99.90;;;;;;5074458;28;20207;-52
2021/01/25 03:43:16;;;;;;;6.15;4.90;;;-0.50;99.90;;;;;;5074366;28;20294;-48
2021/01/25 03:45:43;;;;;;;6.32;4.97;;;-0.40;99.90;;;;;;5074031;28;20227;-50
2021/01/25 03:48:10;;;;;;;8.63;5.50;;;-0.40;99.90;;;;;;5074000;28;20706;-49
2021/01/25 03:50:38;;;;;;;5.47;4.97;;;-0.40;99.90;;;;;;5074365;28;20207;-50
2021/01/25 03:53:05;;;;;;;7.78;6.00;;;-0.40;99.90;;;;;;5074163;28;20214;-52
2021/01/25 03:55:32;;;;;;;7.75;5.05;;;-0.30;99.90;;;;;;5074217;28;20609;-49
2021/01/25 03:57:59;;;;;;;5.47;4.60;;;-0.20;99.90;;;;;;5074119;28;20215;-55
2021/01/25 04:00:27;;;;;;;7.22;5.32;;;-0.20;99.90;;;;;;5073679;28;20210;-55
2021/01/25 04:02:54;;;;;;;6.97;5.97;;;-0.10;99.90;;;;;;5074178;28;20295;-53
2021/01/25 04:05:21;;;;;;;7.60;5.72;;;-0.10;99.80;;;;;;5073780;28;20231;-54
2021/01/25 04:07:48;;;;;;;9.10;7.05;;;0.00;99.70;;;;;;5073753;28;20239;-53
2021/01/25 04:10:15;;;;;;;8.60;6.20;;;0.00;99.60;;;;;;5073751;28;20666;-52
2021/01/25 04:12:43;;;;;;;6.10;5.50;;;0.00;99.70;;;;;;5073732;28;20610;-49
2021/01/25 04:15:11;;;;;;;6.97;5.40;;;-0.10;99.60;;;;;;5072412;28;20259;-49
2021/01/25 04:17:38;;;;;;;9.25;6.72;;;-0.10;99.60;;;;;;5073783;28;20221;-53
2021/01/25 04:20:06;;;;;;;12.40;7.50;;;-0.10;99.60;;;;;;5073465;28;20574;-49
2021/01/25 04:22:34;;;;;;;7.68;5.47;;;-0.10;99.70;;;;;;5073437;28;20298;-50
2021/01/25 04:25:01;;;;;;;7.53;5.20;;;-0.20;99.70;;;;;;5073359;28;20670;-51
2021/01/25 04:27:28;;;;;;;11.48;7.25;;;-0.20;99.60;;;;;;5073371;28;20230;-51
2021/01/25 04:29:55;;;;;;;20.65;11.52;;;-0.20;99.50;;;;;;5073279;28;20250;-54
2021/01/25 04:32:24;;;;;;;12.40;8.07;;;-0.30;99.90;;;;;;5073370;28;20239;-52
2021/01/25 04:34:52;;;;;;;14.43;9.10;;;-0.30;99.60;;;;;;5073086;28;20215;-50
2021/01/25 04:37:19;;;;;;;15.18;7.93;;;-0.30;99.60;;;;;;5073128;28;20302;-52
2021/01/25 04:39:46;;;;;;;12.70;7.50;;;-0.30;99.60;;;;;;5073097;28;20298;-52
2021/01/25 04:42:14;;;;;;;11.77;9.38;;;-0.20;99.40;;;;;;5072940;28;20298;-50
2021/01/25 04:44:41;;;;;;;13.95;8.27;;;-0.10;99.30;;;;;;5073237;28;20284;-51
2021/01/25 04:47:10;;;;;;;11.30;7.72;;;0.00;99.30;;;;;;5072874;28;20288;-52
2021/01/25 04:49:37;;;;;;;9.38;6.00;;;-0.10;98.70;;;;;;5072837;28;20241;-50
2021/01/25 04:52:06;;;;;;;9.70;6.45;;;0.00;98.80;;;;;;5073085;28;20310;-51
2021/01/25 04:54:34;;;;;;;11.98;8.38;;;0.10;98.70;;;;;;5072921;28;20294;-51
2021/01/25 04:57:02;;;;;;;18.55;6.82;;;0.20;98.60;;;;;;5072839;28;20211;-54
2021/01/25 04:59:30;;;;;;;71.97;40.30;;;0.30;98.40;;;;;;5072675;28;20211;-53
2021/01/25 05:01:57;;;;;;;43.63;23.83;;;0.40;98.30;;;;;;5073079;28;20258;-51
2021/01/25 05:04:25;;;;;;;10.05;7.03;;;0.40;98.20;;;;;;5072706;28;20203;-53
2021/01/25 05:06:52;;;;;;;6.97;6.05;;;0.50;98.10;;;;;;5072532;28;20633;-55
2021/01/25 05:09:18;;;;;;;27.08;12.50;;;0.50;98.00;;;;;;5072248;28;20222;-52
2021/01/25 05:11:57;;;;;;;8.82;6.22;;;0.60;97.90;;;;;;5072374;28;20745;-49
2021/01/25 05:14:23;;;;;;;9.88;5.57;;;0.60;97.80;;;;;;5072307;28;20675;-50
2021/01/25 05:16:51;;;;;;;13.75;8.13;;;0.60;97.70;;;;;;5072409;28;20245;-52
2021/01/25 05:19:18;;;;;;;6.07;5.47;;;0.60;97.80;;;;;;5072405;28;20670;-52
2021/01/25 05:21:48;;;;;;;9.05;5.15;;;0.60;98.10;;;;;;5072289;28;20303;-52
2021/01/25 05:24:15;;;;;;;25.23;15.25;;;0.50;97.90;;;;;;5072200;28;20696;-51
2021/01/25 05:26:52;;;;;;;14.82;11.60;;;0.50;98.20;;;;;;5072017;28;20234;-48
2021/01/25 05:29:24;;;;;;;18.48;13.18;;;0.50;98.60;;;;;;5072249;28;20261;-48
2021/01/25 05:31:52;;;;;;;14.93;11.38;;;0.60;98.70;;;;;;5072128;28;20549;-49
2021/01/25 05:34:19;;;;;;;14.05;12.65;;;0.70;98.90;;;;;;5072057;28;20211;-51
2021/01/25 05:36:49;;;;;;;5.47;4.97;;;0.70;99.10;;;;;;5072222;28;20303;-48
2021/01/25 05:39:17;;;;;;;7.13;4.70;;;0.70;99.30;;;;;;5072258;28;20616;-51
2021/01/25 05:41:54;;;;;;;5.68;5.13;;;0.70;99.40;;;;;;5072160;28;20286;-49
2021/01/25 05:44:21;;;;;;;8.07;4.88;;;0.80;99.60;;;;;;5072095;28;20622;-49
2021/01/25 05:46:49;;;;;;;5.87;4.67;;;0.90;99.60;;;;;;5071723;28;20764;-51
2021/01/25 05:49:25;;;;;;;5.97;5.03;;;0.90;99.70;;;;;;5072126;28;20242;-50
2021/01/25 05:51:54;;;;;;;7.00;5.13;;;0.90;99.90;;;;;;5072292;28;20381;-48
2021/01/25 05:54:22;;;;;;;6.50;4.57;;;1.00;99.90;;;;;;5071929;28;20735;-49
2021/01/25 05:56:49;;;;;;;4.85;4.43;;;1.00;99.90;;;;;;5072044;28;20263;-49
2021/01/25 05:59:16;;;;;;;5.90;5.15;;;1.00;99.90;;;;;;5071843;28;20290;-48
2021/01/25 06:01:43;;;;;;;9.63;4.35;;;1.00;99.90;;;;;;5071862;28;20298;-52
2021/01/25 06:04:16;;;;;;;5.18;4.13;;;1.00;99.90;;;;;;5071748;28;20240;-48
2021/01/25 06:06:47;;;;;;;6.35;4.53;;;1.00;99.90;;;;;;5071789;28;20267;-48
2021/01/25 06:09:22;;;;;;;8.13;6.07;;;1.00;99.90;;;;;;5071772;28;20210;-52
2021/01/25 06:11:49;;;;;;;7.88;6.35;;;1.00;99.90;;;;;;5071748;28;20276;-48
2021/01/25 06:14:22;;;;;;;6.28;5.43;;;1.00;99.90;;;;;;5071547;28;20329;-50
2021/01/25 06:16:51;;;;;;;6.32;5.72;;;1.00;99.90;;;;;;5071759;28;20203;-50
2021/01/25 06:19:21;;;;;;;7.50;5.00;;;0.90;99.90;;;;;;5071789;28;20257;-54
2021/01/25 06:21:49;;;;;;;5.90;4.22;;;0.90;99.90;;;;;;5071589;28;20246;-47
2021/01/25 06:24:19;;;;;;;5.65;5.00;;;0.90;99.90;;;;;;5071500;28;20298;-50
2021/01/25 06:26:49;;;;;;;6.30;4.22;;;0.80;99.90;;;;;;5071869;28;20236;-51
2021/01/25 06:29:19;;;;;;;6.45;5.20;;;0.90;99.90;;;;;;5071771;28;20303;-53
2021/01/25 06:31:53;;;;;;;6.80;5.47;;;0.80;99.90;;;;;;5071753;28;20642;-47
2021/01/25 06:34:20;;;;;;;6.70;5.38;;;0.80;99.90;;;;;;5071948;28;20219;-50
2021/01/25 06:36:50;;;;;;;7.13;5.45;;;0.90;99.90;;;;;;5071140;28;20658;-49
2021/01/25 06:39:25;;;;;;;6.15;5.50;;;0.90;99.90;;;;;;5075403;28;20203;-49
2021/01/25 06:42:01;;;;;;;7.32;5.38;;;0.80;99.90;;;;;;5075412;28;20306;-49
2021/01/25 06:44:29;;;;;;;5.70;4.85;;;0.70;99.90;;;;;;5075256;28;20213;-49
2021/01/25 06:46:57;;;;;;;12.85;9.10;;;0.60;99.90;;;;;;5075179;28;20228;-48
2021/01/25 06:49:25;;;;;;;8.90;6.78;;;0.40;99.90;;;;;;5074707;28;20211;-46
2021/01/25 06:51:53;;;;;;;9.05;5.93;;;0.50;99.90;;;;;;5075049;28;20218;-49
2021/01/25 06:54:23;;;;;;;6.72;5.68;;;0.60;99.90;;;;;;5075192;28;20245;-51
2021/01/25 06:56:55;;;;;;;7.28;6.57;;;0.50;99.90;;;;;;5075253;28;20211;-53
2021/01/25 06:59:23;;;;;;;8.77;6.97;;;0.50;99.90;;;;;;5074963;28;20211;-48
2021/01/25 07:01:51;;;;;;;30.85;21.52;;;0.60;99.90;;;;;;5075103;28;20261;-45
2021/01/25 07:04:19;;;;;;;18.95;12.77;;;0.50;99.90;;;;;;5075188;28;20252;-49
2021/01/25 07:06:51;;;;;;;9.75;8.57;;;0.60;99.90;;;;;;5074756;28;20230;-45
2021/01/25 07:09:29;;;;;;;13.85;10.65;;;0.60;99.90;;;;;;5074130;28;20246;-51
2021/01/25 07:11:57;;;;;;;9.38;8.43;;;0.70;99.90;;;;;;5074991;28;20245;-48
2021/01/25 07:14:26;;;;;;;7.23;6.33;;;0.80;99.90;;;;;;5074455;28;20342;-48
2021/01/25 07:16:54;;;;;;;12.10;8.75;;;0.80;99.90;;;;;;5074694;28;20295;-49
2021/01/25 07:19:23;;;;;;;7.57;6.80;;;0.80;99.90;;;;;;5074729;28;20210;-50
2021/01/25 07:21:51;;;;;;;7.53;6.63;;;0.80;99.90;;;;;;5074675;28;20210;-52
2021/01/25 07:24:20;;;;;;;8.05;6.97;;;0.70;99.90;;;;;;5074505;28;20207;-53
2021/01/25 07:26:51;;;;;;;16.87;13.63;;;0.70;99.90;;;;;;5074493;28;20223;-51
2021/01/25 07:29:18;;;;;;;11.00;9.25;;;0.70;99.90;;;;;;5074795;28;20277;-53
2021/01/25 07:31:46;;;;;;;14.53;10.23;;;0.70;99.90;;;;;;5074649;28;20298;-51
2021/01/25 07:34:13;;;;;;;12.60;8.45;;;0.70;99.90;;;;;;5074412;28;20222;-50
2021/01/25 07:36:42;;;;;;;48.33;30.88;;;0.80;99.90;;;;;;5074221;28;20231;-54
2021/01/25 07:39:10;;;;;;;31.17;20.20;;;1.00;99.90;;;;;;5074122;28;20298;-49
2021/01/25 07:41:38;;;;;;;40.50;26.43;;;1.10;99.90;;;;;;5074177;28;20662;-51
2021/01/25 07:44:07;;;;;;;31.58;19.80;;;1.30;99.90;;;;;;5074254;28;20683;-54
2021/01/25 07:46:35;;;;;;;17.80;12.40;;;1.40;99.90;;;;;;5074272;28;20249;-49
2021/01/25 07:49:07;;;;;;;37.63;24.07;;;1.50;99.90;;;;;;5074069;28;20283;-49
2021/01/25 07:51:36;;;;;;;9.68;7.53;;;1.60;99.90;;;;;;5074060;28;20306;-50
2021/01/25 07:54:04;;;;;;;7.40;5.28;;;1.70;99.90;;;;;;5074121;28;20223;-54
2021/01/25 07:56:32;;;;;;;5.13;4.72;;;1.80;99.90;;;;;;5074257;28;20230;-50
2021/01/25 07:59:07;;;;;;;5.25;4.75;;;1.90;99.90;;;;;;5074047;28;20210;-49
2021/01/25 08:01:48;;;;;;;5.07;4.18;;;2.00;99.90;;;;;;5074041;28;20203;-48
2021/01/25 08:04:19;;;;;;;6.60;6.00;;;2.10;99.90;;;;;;5073813;28;20245;-54
2021/01/25 08:06:48;;;;;;;4.65;4.18;;;2.10;99.90;;;;;;5074028;28;20227;-52
2021/01/25 08:09:18;;;;;;;6.18;5.60;;;2.00;99.90;;;;;;5073715;28;20250;-49
2021/01/25 08:11:46;;;;;;;5.53;4.38;;;2.00;99.90;;;;;;5073633;28;20657;-52
2021/01/25 08:14:36;;;;;;;4.93;4.53;;;2.10;99.90;;;;;;5073491;28;20243;-48
2021/01/25 08:17:06;;;;;;;5.73;4.53;;;2.30;99.90;;;;;;5074031;28;20231;-52
2021/01/25 08:19:38;;;;;;;4.63;4.20;;;2.50;99.90;;;;;;5073574;28;20678;-52
2021/01/25 08:22:13;;;;;;;4.73;4.33;;;2.50;99.90;;;;;;5073490;28;20575;-52
2021/01/25 08:24:42;;;;;;;6.60;6.00;;;2.70;99.90;;;;;;5073402;28;20628;-49
2021/01/25 08:27:14;;;;;;;5.95;5.35;;;2.70;99.90;;;;;;5073252;28;20235;-50
2021/01/25 08:29:43;;;;;;;4.53;4.13;;;2.80;99.90;;;;;;5073669;28;20211;-47
2021/01/25 08:32:21;;;;;;;5.07;4.57;;;2.90;99.90;;;;;;5073341;28;20298;-53
2021/01/25 08:34:57;;;;;;;5.32;4.80;;;3.10;99.90;;;;;;5073156;28;20211;-52
2021/01/25 08:37:28;;;;;;;4.85;4.13;;;3.20;99.90;;;;;;5073235;28;20742;-51
2021/01/25 08:39:55;;;;;;;8.57;5.10;;;3.30;99.90;;;;;;5072734;28;20283;-52
2021/01/25 08:42:25;;;;;;;5.68;5.18;;;3.30;99.90;;;;;;5072758;28;20284;-48
2021/01/25 08:44:56;;;;;;;5.30;4.80;;;3.40;99.90;;;;;;5072881;28;20211;-51
2021/01/25 08:47:25;;;;;;;5.97;4.95;;;3.40;99.90;;;;;;5072832;28;20227;-51
2021/01/25 08:49:53;;;;;;;5.82;4.97;;;3.40;99.90;;;;;;5073102;28;20218;-46
2021/01/25 08:52:27;;;;;;;6.28;4.05;;;3.50;99.90;;;;;;5072772;28;20211;-47
2021/01/25 08:55:07;;;;;;;5.40;4.90;;;3.50;99.80;;;;;;5072705;28;20207;-50
2021/01/25 08:57:37;;;;;;;4.57;4.18;;;3.50;99.80;;;;;;5072743;28;20391;-49
2021/01/25 09:00:14;;;;;;;5.65;4.53;;;3.40;99.80;;;;;;5072126;28;20217;-51
2021/01/25 09:02:41;;;;;;;5.10;4.70;;;3.30;99.90;;;;;;5072257;28;20207;-47
2021/01/25 09:05:09;;;;;;;5.53;5.03;;;3.30;99.90;;;;;;5072370;28;20310;-52
2021/01/25 09:07:36;;;;;;;4.68;4.28;;;3.20;99.90;;;;;;5072504;28;20235;-47
2021/01/25 09:10:05;;;;;;;5.07;4.40;;;3.20;99.90;;;;;;5072480;28;20211;-49
2021/01/25 09:12:32;;;;;;;5.85;5.05;;;3.10;99.90;;;;;;5072521;28;20624;-49
2021/01/25 09:14:59;;;;;;;4.40;4.00;;;3.00;99.90;;;;;;5072348;28;20673;-48
2021/01/25 09:17:27;;;;;;;12.25;7.68;;;2.90;99.90;;;;;;5072291;28;20294;-50
2021/01/25 09:19:54;;;;;;;5.47;4.68;;;2.80;99.90;;;;;;5072509;28;20257;-50
2021/01/25 09:22:21;;;;;;;5.35;4.93;;;2.70;99.90;;;;;;5072354;28;20314;-54
2021/01/25 09:24:48;;;;;;;5.07;4.55;;;2.60;99.90;;;;;;5072415;28;20239;-48
2021/01/25 09:27:16;;;;;;;10.10;6.15;;;2.70;99.90;;;;;;5072306;28;20223;-52
2021/01/25 09:29:42;;;;;;;7.50;5.95;;;2.80;99.90;;;;;;5072157;28;20207;-47
2021/01/25 09:32:09;;;;;;;6.18;5.13;;;2.90;99.90;;;;;;5072434;28;20213;-51
2021/01/25 09:34:37;;;;;;;10.47;6.37;;;3.10;99.90;;;;;;5072295;28;20253;-48
2021/01/25 09:37:07;;;;;;;5.78;5.28;;;3.20;99.90;;;;;;5071996;28;20685;-49
2021/01/25 09:39:34;;;;;;;6.45;5.82;;;3.30;99.90;;;;;;5072275;28;20290;-49
2021/01/25 09:42:01;;;;;;;7.28;5.72;;;3.60;99.90;;;;;;5072081;28;20302;-47
2021/01/25 09:44:28;;;;;;;8.18;6.20;;;3.70;99.90;;;;;;5071896;28;20210;-48
2021/01/25 09:46:56;;;;;;;6.55;5.95;;;3.90;99.90;;;;;;5072263;28;20237;-52
2021/01/25 09:49:24;;;;;;;6.43;4.97;;;4.10;99.90;;;;;;5072071;28;20696;-49
2021/01/25 09:51:52;;;;;;;5.97;5.30;;;4.40;99.70;;;;;;5071873;28;20234;-52
2021/01/25 09:54:19;;;;;;;6.63;5.60;;;4.70;99.40;;;;;;5071956;28;20207;-52
2021/01/25 09:56:46;;;;;;;6.20;5.30;;;4.90;99.10;;;;;;5071638;28;20643;-52
2021/01/25 09:59:13;;;;;;;7.28;5.88;;;5.10;98.80;;;;;;5071719;28;20239;-52
2021/01/25 10:01:40;;;;;;;7.10;5.47;;;5.30;98.40;;;;;;5071874;28;20298;-52
2021/01/25 10:04:07;;;;;;;6.97;5.78;;;5.40;98.30;;;;;;5071951;28;20290;-48
2021/01/25 10:06:34;;;;;;;11.68;8.95;;;5.50;98.30;;;;;;5071676;28;20227;-50
2021/01/25 10:09:03;;;;;;;9.00;7.68;;;5.40;98.40;;;;;;5071782;28;20298;-49
2021/01/25 10:11:33;;;;;;;8.02;5.78;;;5.30;98.70;;;;;;5071658;28;20218;-50
2021/01/25 10:14:00;;;;;;;7.18;5.90;;;5.30;98.80;;;;;;5075286;28;20262;-52
2021/01/25 10:16:27;;;;;;;4.82;4.30;;;5.30;98.80;;;;;;5075908;28;20291;-49
2021/01/25 10:18:54;;;;;;;10.35;9.35;;;5.30;98.70;;;;;;5075787;28;20219;-50
2021/01/25 10:21:21;;;;;;;5.38;4.45;;;5.40;98.80;;;;;;5075557;28;20548;-54
2021/01/25 10:23:48;;;;;;;7.85;4.88;;;5.30;98.70;;;;;;5075640;28;20238;-49
2021/01/25 10:26:19;;;;;;;7.75;4.18;;;5.10;98.90;;;;;;5075565;28;20277;-50
2021/01/25 10:28:45;;;;;;;7.18;4.75;;;5.00;99.20;;;;;;5075735;28;20212;-51
2021/01/25 10:31:13;;;;;;;8.23;6.78;;;4.80;99.50;;;;;;5075610;28;20284;-49
2021/01/25 10:33:40;;;;;;;5.57;5.07;;;4.80;99.70;;;;;;5075566;28;20422;-51
2021/01/25 10:36:08;;;;;;;5.97;4.90;;;4.70;99.80;;;;;;5075430;28;20364;-49
2021/01/25 10:38:35;;;;;;;27.13;21.92;;;4.80;99.90;;;;;;5075414;28;20298;-47
2021/01/25 10:41:02;;;;;;;7.25;5.38;;;4.90;99.90;;;;;;5075490;28;20242;-53
2021/01/25 10:43:29;;;;;;;46.67;38.00;;;5.00;99.80;;;;;;5075497;28;20316;-49
2021/01/25 10:45:56;;;;;;;8.00;7.20;;;5.00;99.80;;;;;;5075284;28;20532;-50
2021/01/25 10:48:23;;;;;;;6.05;5.53;;;5.00;99.80;;;;;;5074801;28;20247;-51
2021/01/25 10:50:50;;;;;;;9.15;8.35;;;5.00;99.90;;;;;;5074917;28;20265;-51
2021/01/25 10:53:18;;;;;;;6.20;5.40;;;5.20;99.90;;;;;;5075174;28;20612;-53
2021/01/25 10:55:45;;;;;;;7.00;5.40;;;5.30;99.80;;;;;;5075041;28;20622;-49
2021/01/25 10:58:13;;;;;;;6.63;6.05;;;5.40;99.80;;;;;;5074840;28;20212;-50
2021/01/25 11:00:40;;;;;;;6.07;5.60;;;5.70;99.90;;;;;;5074926;28;20329;-49
2021/01/25 11:03:07;;;;;;;8.60;7.30;;;6.00;99.30;;;;;;5074876;28;20587;-50
2021/01/25 11:05:35;;;;;;;5.80;5.22;;;6.40;98.80;;;;;;5074702;28;20214;-50
2021/01/25 11:08:02;;;;;;;7.05;4.63;;;6.60;98.50;;;;;;5074556;28;20793;-50
2021/01/25 11:10:29;;;;;;;5.03;4.70;;;6.50;98.50;;;;;;5074546;28;20483;-52
2021/01/25 11:12:56;;;;;;;6.13;5.63;;;6.30;98.90;;;;;;5074515;28;20298;-48
2021/01/25 11:15:24;;;;;;;6.40;4.85;;;6.10;99.30;;;;;;5074462;28;20302;-47
2021/01/25 11:17:53;;;;;;;6.25;5.00;;;5.80;99.70;;;;;;5074433;28;20211;-47
2021/01/25 11:20:20;;;;;;;6.30;5.80;;;5.50;99.90;;;;;;5074540;28;20218;-45
2021/01/25 11:22:47;;;;;;;5.20;4.80;;;5.20;99.90;;;;;;5073922;28;20247;-51
2021/01/25 11:25:14;;;;;;;6.28;5.78;;;5.00;99.90;;;;;;5074673;28;20304;-45
2021/01/25 11:27:41;;;;;;;7.28;6.68;;;4.90;99.90;;;;;;5074469;28;20322;-47
2021/01/25 11:30:10;;;;;;;8.05;7.25;;;4.80;99.90;;;;;;5074500;28;20302;-47
2021/01/25 11:32:37;;;;;;;10.52;8.57;;;4.70;99.90;;;;;;5074206;28;20211;-46
2021/01/25 11:35:06;;;;;;;8.48;7.57;;;4.70;99.90;;;;;;5074504;28;20207;-46
2021/01/25 11:37:34;;;;;;;13.93;12.73;;;4.70;99.90;;;;;;5074284;28;20226;-46
2021/01/25 11:40:01;;;;;;;10.18;8.25;;;4.70;99.90;;;;;;5074261;28;20725;-48
2021/01/25 11:42:28;;;;;;;8.80;6.43;;;4.70;99.90;;;;;;5074419;28;20213;-47
2021/01/25 11:44:55;;;;;;;8.30;7.55;;;4.60;99.90;;;;;;5074253;28;20578;-48
2021/01/25 11:47:22;;;;;;;8.20;7.53;;;4.60;99.90;;;;;;5074340;28;20265;-47
2021/01/25 11:49:53;;;;;;;15.05;13.60;;;4.50;99.90;;;;;;5074316;28;20218;-47
2021/01/25 11:52:21;;;;;;;34.22;30.95;;;4.50;99.90;;;;;;5074209;28;20299;-49
2021/01/25 11:54:48;;;;;;;15.65;14.32;;;4.60;99.90;;;;;;5074238;28;20298;-47
2021/01/25 11:57:15;;;;;;;8.80;8.00;;;4.70;99.90;;;;;;5074066;28;20290;-49
2021/01/25 11:59:42;;;;;;;8.52;7.82;;;4.80;99.90;;;;;;5073897;28;20246;-48
2021/01/25 12:02:09;;;;;;;8.52;7.68;;;4.90;99.90;;;;;;5073894;28;20733;-54
2021/01/25 12:04:36;;;;;;;9.88;8.98;;;4.90;99.90;;;;;;5074098;28;20207;-53
2021/01/25 12:07:03;;;;;;;11.55;10.45;;;4.90;99.90;;;;;;5073961;28;20231;-54
2021/01/25 12:09:30;;;;;;;10.50;9.50;;;5.00;99.90;;;;;;5073853;28;20235;-53
2021/01/25 12:11:57;;;;;;;8.60;7.75;;;4.90;99.90;;;;;;5073735;28;20207;-56
2021/01/25 12:14:24;;;;;;;8.00;7.22;;;4.90;99.90;;;;;;5073473;28;20672;-52
2021/01/25 12:16:51;;;;;;;8.10;7.40;;;4.90;99.90;;;;;;5073413;28;20559;-51
2021/01/25 12:19:18;;;;;;;11.68;9.07;;;4.90;99.90;;;;;;5073481;28;20217;-50
2021/01/25 12:21:45;;;;;;;8.15;7.35;;;4.80;99.90;;;;;;5073358;28;20298;-50
2021/01/25 12:24:13;;;;;;;10.38;8.85;;;4.80;99.90;;;;;;5073304;28;20646;-50
2021/01/25 12:26:40;;;;;;;9.25;8.13;;;4.80;99.90;;;;;;5073278;28;20227;-49
2021/01/25 12:29:07;;;;;;;7.45;6.75;;;4.70;99.90;;;;;;5073597;28;20298;-48
2021/01/25 12:31:34;;;;;;;9.07;8.18;;;4.70;99.90;;;;;;5073311;28;20249;-47
2021/01/25 12:34:02;;;;;;;8.88;7.97;;;4.60;99.90;;;;;;5073189;28;20203;-50
2021/01/25 12:36:29;;;;;;;10.23;7.82;;;4.60;99.90;;;;;;5072334;28;20200;-47
2021/01/25 12:38:57;;;;;;;9.52;8.63;;;4.60;99.90;;;;;;5073115;28;20207;-47
2021/01/25 12:41:24;;;;;;;8.45;7.60;;;4.60;99.90;;;;;;5073146;28;20298;-49
2021/01/25 12:43:52;;;;;;;8.93;8.18;;;4.60;99.90;;;;;;5073305;28;20726;-49
2021/01/25 12:46:21;;;;;;;8.15;7.45;;;4.70;99.90;;;;;;5072825;28;20696;-53
2021/01/25 12:48:48;;;;;;;9.07;8.18;;;4.60;99.90;;;;;;5072791;28;20264;-49
2021/01/25 12:51:15;;;;;;;9.98;8.98;;;4.60;99.90;;;;;;5072787;28;20684;-50
2021/01/25 12:53:42;;;;;;;9.25;8.35;;;4.60;99.90;;;;;;5072787;28;20303;-51
2021/01/25 12:56:09;;;;;;;9.50;7.97;;;4.60;99.90;;;;;;5072625;28;20310;-50